Aérodrome de Montendre-Marcillac

LFDC · Charente-Maritime, Nouvelle-Aquitaine, Francja

Historia METAR LFDC · Montendre Marcillac Airport

Poniżej widzisz METAR-y z ostatnich kilku dni. Wybierz rok, aby przeglądać starsze METAR-y, począwszy od roku 2007.

29 listopada 2022

Czas Kod Pogoda Temp. Widoczność Sufit Wiatr METAR/SPECI
11:00
L
4 °C 300 m - Var 000° 0 kt METAR LFBG 291000Z AUTO 00000KT 0350 0300 R23/0500D FG VV/// 04/04 Q1021 BECMG 9999 NSW SCT015
11:00
L
4 °C 300 m - Var 000° 0 kt METAR LFBG 291000Z AUTO 00000KT 0350 0300 R23/0500D FG VV/// 04/04 Q1021 BECMG 9999 NSW SCT015
10:30
L
4 °C 300 m - Var 000° 0 kt METAR LFBG 290930Z AUTO 00000KT 0350 0300 R23/0650U FG VV/// 04/04 Q1021 BECMG 9999 NSW SCT015
10:00
L
3 °C 400 m - 070° 070° 3 kt METAR LFBG 290900Z AUTO 07003KT 0450 0400 R23/0350D FG VV/// 03/03 Q1020 BECMG 4000 BR BKN003
09:30
L
2 °C 350 m - 060° 060° 2 kt METAR LFBG 290830Z AUTO 06002KT 0400 0350 R23///// FG VV/// 02/02 Q1020 BECMG CAVOK
09:00
L
2 °C 450 m - Var 000° 0 kt METAR LFBG 290800Z AUTO 00000KT 0550 0450 R23/0800U FG VV/// 02/02 Q1020 TEMPO BKN003
08:30
L
2 °C 250 m - Var 000° 0 kt METAR LFBG 290730Z AUTO 00000KT 0300 0250 R23/0400U FG VV/// 02/02 Q1020 TEMPO 0500 FG BKN003
08:00
L
1 °C 400 m - Var 000° 0 kt METAR LFBG 290700Z AUTO 00000KT 0450 0400 R23/0500N FG VV/// 01/01 Q1020 TEMPO BKN003
07:30
L
3 °C 400 m 800 ft 070° 070° 3 kt METAR LFBG 290630Z AUTO 07003KT 0600 0400 R23/0300D FG OVC008 03/03 Q1019
07:00
L
3 °C 600 m 1.500 ft Var 000° 0 kt METAR LFBG 290600Z AUTO 00000KT 1000 0600 R23/0800N BCFG SCT009 BKN015 03/03 Q1019
06:30
L
3 °C 900 m - Var 000° 0 kt METAR LFBG 290530Z AUTO 00000KT 1000 0900 R23/1100U BCFG SCT004 03/03 Q1019
06:00
L
4 °C 1 km - Var 000° 0 kt METAR LFBG 290500Z AUTO 00000KT 4900 1000 R23/1300D BR NSC 04/03 Q1019
05:30
L
4 °C 1,1 km - 060° 060° 2 kt METAR LFBG 290430Z AUTO 06002KT 1400 1100 R23/1400N BR SCT037 04/04 Q1019
05:00
L
4 °C 1,3 km - 080° 080° 1 kt METAR LFBG 290400Z AUTO 08001KT 5000 1300 R23/1600D BR FEW037 SCT078 04/04 Q1018
04:30
L
4 °C 1,1 km 8.000 ft 050° 050° 3 kt METAR LFBG 290330Z AUTO 05003KT 6000 1100 R23/1400U FEW035 BKN080 04/04 Q1018
04:00
L
4 °C 900 m 8.600 ft Var Var 2 kt METAR LFBG 290300Z AUTO VRB02KT 2000 0900 R23/1100U BCFG FEW022 BKN086 04/04 Q1018
03:30
I
5 °C 2,7 km 5.600 ft Var 000° 0 kt METAR LFBG 290230Z AUTO 00000KT 9999 2700 FEW033 SCT047 BKN056 05/04 Q1018
03:00
I
4 °C 2,4 km 6.200 ft Var 000° 0 kt METAR LFBG 290200Z AUTO 00000KT 5000 2400 R23/1400U BR FEW034/// SCT047/// BKN062/// //////TCU 04/04 Q1018
02:30
I
4 °C 2,4 km 5.600 ft Var 000° 0 kt METAR LFBG 290130Z AUTO 00000KT 2400 R23/1400U BR FEW036 SCT044 BKN056 04/04 Q1018
02:00
L
4 °C 1,2 km 4.800 ft Var 000° 0 kt METAR LFBG 290100Z AUTO 00000KT 9999 1200 R23/1100U SCT041 BKN048 BKN058 04/04 Q1018
01:30
L
4 °C 750 m 4.600 ft Var 000° 0 kt METAR LFBG 290030Z AUTO 00000KT 7000 0750 R23/1000N BCFG FEW032 SCT040 BKN046 04/03 Q1018
01:00
L
4 °C 1,1 km - Var 000° 0 kt METAR LFBG 290000Z AUTO 00000KT 1100 R23///// BR NSC 04/03 Q1019
00:30
L
4 °C 400 m 3.600 ft Var 000° 0 kt METAR LFBG 282330Z AUTO 00000KT 3500 0400 R23/0800U BCFG FEW025 SCT030 BKN036 04/03 Q1019
00:00
L
4 °C 450 m 2.500 ft Var Var 2 kt METAR LFBG 282300Z AUTO VRB02KT 0650 0450 R23/1100U FG OVC025 04/03 Q1019

28 listopada 2022

Czas Kod Pogoda Temp. Widoczność Sufit Wiatr METAR/SPECI
23:30
L
6 °C 550 m - 260° 260° 2 kt METAR LFBG 282230Z AUTO 26002KT 5000 0550 R23/0700D BCFG NSC 06/05 Q1019
23:00
L
6 °C 900 m - 260° 260° 2 kt METAR LFBG 282200Z AUTO 26002KT 5000 0900 R23/1200D BCFG NSC 06/05 Q1019
22:30
L
6 °C 500 m - 260° 260° 2 kt METAR LFBG 282130Z AUTO 26002KT 5000 0500 R23/0650D BCFG SCT039 SCT054 06/05 Q1019
22:00
V
6 °C 8 km - Var 000° 0 kt METAR LFBG 282100Z AUTO 00000KT 8000 NSC 06/05 Q1019
21:30
I
6 °C 1,8 km - 250° 250° 2 kt METAR LFBG 282030Z AUTO 25002KT 6000 1800 NSC 06/06 Q1018
21:00
V
6 °C 10 km+ - 270° 270° 2 kt METAR LFBG 282000Z AUTO 27002KT 9999 NSC 06/05 Q1018
20:30
V
7 °C 10 km+ - 230° 230° 3 kt METAR LFBG 281930Z AUTO 23003KT 9999 NSC 07/06 Q1018
20:00
V
7 °C 10 km+ - 230° 230° 4 kt METAR LFBG 281900Z AUTO 23004KT 9999 NSC 07/06 Q1018
19:30
V
7 °C 10 km+ - 220° 220° 4 kt METAR LFBG 281830Z AUTO 22004KT 9999 NSC 07/07 Q1018
19:00
V
7 °C 10 km+ - 220° 220° 3 kt METAR LFBG 281800Z AUTO 22003KT 9999 NSC 07/07 Q1017
18:30
V
8 °C 10 km+ - 240° 240° 2 kt METAR LFBG 281730Z AUTO 24002KT 9999 NSC 08/07 Q1017
18:00
V
8 °C 10 km+ - 220° 220° 3 kt METAR LFBG 281700Z AUTO 22003KT 9999 FEW039 SCT120 08/07 Q1017
17:30
V
8 °C 10 km+ - 220° 220° 3 kt METAR LFBG 281630Z AUTO 22003KT 9999 NSC 08/07 Q1017
17:00
V
9 °C 10 km+ - 230° 230° 4 kt METAR LFBG 281600Z AUTO 23004KT 9999 NSC 09/08 Q1017 NOSIG
16:30
V
9 °C 10 km+ 16.000 ft 240° 240° 4 kt METAR LFBG 281530Z AUTO 24004KT 9999 FEW041/// BKN160/// ///CB 09/08 Q1016 BECMG SCT025
16:00
V
9 °C 10 km+ 5.400 ft 260° 260° 5 kt METAR LFBG 281500Z AUTO 26005KT 240V300 9999 -RA FEW018/// SCT039/// BKN054/// ///CB 09/08 Q1016 TEMPO 2000 -TSRA BECMG SCT025
15:30
I
11 °C 1,8 km 2.600 ft 320° 320° 13 - 26 kt METAR LFBG 281430Z AUTO 32013G26KT 290V350 9999 1800 +RA BKN026/// BKN033/// BKN041/// ///CB 11/07 Q1016 TEMPO 2000 -TSRA BECMG SCT025
15:00
L
12 °C 1 km 3.500 ft 280° 280° 10 kt METAR LFBG 281400Z AUTO 28010KT 240V320 9999 1000 R23/1200D -RA SCT029/// BKN035/// BKN045/// //////CB 12/09 Q1015 TEMPO 4000 SHRA BECMG SCT025
14:30
V
13 °C 10 km+ 16.000 ft 210° 210° 5 kt METAR LFBG 281330Z AUTO 21005KT 9999 SCT035/// SCT120/// BKN160/// ///CB 13/10 Q1015 TEMPO 4000 SHRA BECMG SCT025
14:00
V
13 °C 10 km+ - 240° 240° 4 kt METAR LFBG 281300Z AUTO 24004KT 9999 FEW022/// ///CB 13/10 Q1015 TEMPO 4000 SHRA
13:30
V
12 °C 10 km+ 3.900 ft Var Var 2 kt METAR LFBG 281230Z AUTO VRB02KT 9999 FEW022/// SCT028/// BKN039/// //////CB 12/10 Q1016 TEMPO 4000 SHRA
13:00
V
12 °C 10 km+ 9.800 ft Var Var 3 kt METAR LFBG 281200Z AUTO VRB03KT 9999 SCT031/// SCT062/// BKN098/// //////TCU 12/09 Q1016 TEMPO 4000 SHRA SCT025CB BKN050
12:30
V
11 °C 10 km+ 4.700 ft 260° 260° 10 kt METAR LFBG 281130Z AUTO 26010KT 9999 -RA FEW015/// SCT037/// BKN047/// //////CB 11/09 Q1016 TEMPO 4000 SHRA
12:00
I
11 °C 1,8 km 6.400 ft 250° 250° 10 kt METAR LFBG 281100Z AUTO 25010KT 210V290 8000 1800 +RA FEW013/// SCT050/// BKN064/// ///CB 11/08 Q1016 TEMPO 4000 SHRA
11:30
V
13 °C 10 km+ - 210° 210° 5 kt METAR LFBG 281030Z AUTO 21005KT 180V240 9999 ///CB 13/09 Q1017 TEMPO 4000 SHRA
11:00
V
11 °C 10 km+ 4.300 ft 240° 240° 4 kt METAR LFBG 281000Z AUTO 24004KT 9999 FEW029/// BKN043/// BKN062/// //////CB 11/09 Q1017 TEMPO 4000 SHRA
10:30
V
11 °C 10 km+ 4.500 ft 210° 210° 5 kt METAR LFBG 280930Z AUTO 21005KT 9999 SCT034/// BKN045/// //////TCU 11/10 Q1017 TEMPO 4000 SHRA SCT025CB BKN050
10:00
V
10 °C 10 km+ - Var Var 3 kt METAR LFBG 280900Z AUTO VRB03KT 9999 FEW031 SCT041 10/09 Q1016 TEMPO 4000 SHRA SCT025CB BKN050
09:30
V
7 °C 10 km+ 4.000 ft 180° 180° 3 kt METAR LFBG 280830Z AUTO 18003KT 9999 SCT032 BKN040 07/07 Q1017 TEMPO 4000 SHRA SCT025CB BKN050
09:00
V
7 °C 10 km+ 3.800 ft 170° 170° 2 kt METAR LFBG 280800Z AUTO 17002KT 9999 BKN038 BKN220 BKN240 07/06 Q1017 TEMPO 4000 SHRA SCT025CB BKN050
08:30
V
7 °C 10 km+ 22.000 ft Var 000° 0 kt METAR LFBG 280730Z AUTO 00000KT 9999 SCT035 OVC220 07/07 Q1016 TEMPO 4000 SHRA SCT025CB BKN050
08:00
V
8 °C 10 km+ 22.000 ft 190° 190° 3 kt METAR LFBG 280700Z AUTO 19003KT 9999 FEW024/// SCT098/// OVC220/// //////TCU 08/07 Q1016 TEMPO 4000 SHRA SCT025CB BKN050
07:30
V
9 °C 10 km+ 21.000 ft 230° 230° 3 kt METAR LFBG 280630Z AUTO 23003KT 9999 FEW033/// SCT043/// OVC210/// //////TCU 09/08 Q1016 TEMPO 4000 SHRA SCT025CB BKN050
07:00
V
9 °C 10 km+ 19.000 ft 270° 270° 3 kt METAR LFBG 280600Z AUTO 27003KT 9999 FEW044/// BKN190/// OVC210/// //////TCU 09/08 Q1016
06:30
V
9 °C 10 km+ 4.200 ft 270° 270° 5 kt METAR LFBG 280530Z AUTO 27005KT 9999 SCT027/// BKN042/// BKN056/// ///CB 09/08 Q1016
06:00
V
10 °C 10 km+ 8.800 ft 250° 250° 5 kt METAR LFBG 280500Z AUTO 25005KT 9999 FEW043/// SCT074/// OVC088/// //////TCU 10/09 Q1016
05:30
V
9 °C 10 km+ 9.000 ft 230° 230° 4 kt METAR LFBG 280430Z AUTO 23004KT 9999 FEW027/// BKN090/// BKN120/// ///TCU 09/09 Q1016
05:00
M
10 °C 10 km+ 2.900 ft 250° 250° 4 kt METAR LFBG 280400Z AUTO 25004KT 9999 BKN029 BKN240 10/09 Q1016
04:30
V
10 °C 10 km+ 5.400 ft 220° 220° 3 kt METAR LFBG 280330Z AUTO 22003KT 9999 FEW028/// BKN054/// BKN066/// //////TCU 10/09 Q1015
04:00
V
11 °C 10 km+ 4.200 ft 240° 240° 3 kt METAR LFBG 280300Z AUTO 24003KT 9999 FEW035 BKN042 BKN050 11/10 Q1015
03:30
V
11 °C 10 km+ 10.000 ft 260° 260° 4 kt METAR LFBG 280230Z AUTO 26004KT 9999 SCT046 SCT066 BKN100 11/10 Q1015
03:00
V
11 °C 10 km+ - 260° 260° 5 kt METAR LFBG 280200Z AUTO 26005KT CAVOK 11/11 Q1015
02:30
V
11 °C 10 km+ 13.000 ft Var Var 3 kt METAR LFBG 280130Z AUTO VRB03KT 9999 FEW011 OVC130 11/11 Q1015
02:00
M
11 °C 10 km+ 1.600 ft 250° 250° 5 kt METAR LFBG 280100Z AUTO 25005KT 9999 BKN016/// BKN034/// OVC130/// ///TCU 11/11 Q1014
01:30
M
11 °C 10 km+ 2.000 ft 230° 230° 7 kt METAR LFBG 280030Z AUTO 23007KT 9999 SCT011/// BKN020/// BKN037/// ///TCU 11/11 Q1015
01:00
M
11 °C 10 km+ 1.400 ft 220° 220° 6 kt METAR LFBG 280000Z AUTO 22006KT 9999 -RA FEW009/// BKN014/// BKN029/// //////TCU 11/11 Q1015
00:30
V
11 °C 10 km+ 6.000 ft 210° 210° 6 kt METAR LFBG 272330Z AUTO 21006KT 9999 -RADZ FEW019/// SCT040/// BKN060/// ///CB 11/10 Q1015
00:00
V
10 °C 10 km+ 6.400 ft 210° 210° 8 kt METAR LFBG 272300Z AUTO 21008KT 9999 -RA FEW017/// SCT028/// BKN064/// //////TCU 10/10 Q1015

27 listopada 2022

Czas Kod Pogoda Temp. Widoczność Sufit Wiatr METAR/SPECI
23:30
V
10 °C 10 km+ 8.000 ft 190° 190° 6 kt METAR LFBG 272230Z AUTO 19006KT 9999 -RA FEW035/// SCT064/// OVC080/// ///CB 10/09 Q1015
23:00
M
10 °C 5 km 2.300 ft 240° 240° 5 kt METAR LFBG 272200Z AUTO 24005KT 190V290 5000 -RA BR SCT009/// BKN023/// BKN033/// //////CB 10/09 Q1015
22:30
V
9 °C 10 km+ 6.800 ft 160° 160° 8 kt METAR LFBG 272130Z AUTO 16008KT 9999 -RA SCT037/// OVC068/// //////CB 09/09 Q1015
22:00
V
9 °C 10 km+ - 150° 150° 7 kt METAR LFBG 272100Z AUTO 15007KT 120V180 9999 -RA ///TCU 09/08 Q1015
21:30
V
10 °C 10 km+ 6.200 ft 140° 140° 3 kt METAR LFBG 272030Z AUTO 14003KT 110V190 9999 -RA FEW026/// BKN062/// BKN072/// ///TCU 10/08 Q1015
21:00
M
10 °C 10 km+ 2.700 ft Var Var 1 kt METAR LFBG 272000Z AUTO VRB01KT 9999 -RA FEW014/// BKN027/// OVC033/// //////TCU 10/07 Q1015
20:30
V
10 °C 10 km+ 4.800 ft Var Var 1 kt METAR LFBG 271930Z AUTO VRB01KT 9999 SCT029/// SCT040/// BKN048/// //////CB 10/07 Q1015
20:00
V
10 °C 10 km+ 3.400 ft 120° 120° 3 kt METAR LFBG 271900Z AUTO 12003KT 080V160 9999 BKN034/// BKN054/// OVC096/// ///TCU 10/06 Q1015
19:30
V
9 °C 10 km+ 8.800 ft Var Var 2 kt METAR LFBG 271830Z AUTO VRB02KT 9999 FEW043 OVC088 09/06 Q1016
19:00
V
9 °C 10 km+ - Var 000° 0 kt METAR LFBG 271800Z AUTO 00000KT CAVOK 09/06 Q1016
18:30
V
9 °C 10 km+ - Var Var 2 kt METAR LFBG 271730Z AUTO VRB02KT CAVOK 09/06 Q1016
18:00
V
9 °C 10 km+ - Var Var 3 kt METAR LFBG 271700Z AUTO VRB03KT CAVOK 09/06 Q1016
17:30
V
9 °C 10 km+ - 150° 150° 6 kt METAR LFBG 271630Z AUTO 15006KT CAVOK 09/06 Q1016
17:00
V
10 °C 10 km+ 25.000 ft 140° 140° 8 kt METAR LFBG 271600Z AUTO 14008KT 9999 FEW038 OVC250 10/06 Q1016
16:30
V
11 °C 10 km+ - 140° 140° 7 kt METAR LFBG 271530Z AUTO 14007KT CAVOK 11/06 Q1016
16:00
V
11 °C 10 km+ - 170° 170° 6 kt METAR LFBG 271500Z AUTO 17006KT CAVOK 11/06 Q1017
15:30
V
11 °C 10 km+ - 150° 150° 10 kt METAR LFBG 271430Z AUTO 15010KT CAVOK 11/06 Q1017
15:00
V
11 °C 10 km+ - 150° 150° 10 kt METAR LFBG 271400Z AUTO 15010KT CAVOK 11/06 Q1017
14:30
V
11 °C 10 km+ - 140° 140° 9 kt METAR LFBG 271330Z AUTO 14009KT CAVOK 11/06 Q1017
14:00
V
11 °C 10 km+ - 130° 130° 8 kt METAR LFBG 271300Z AUTO 13008KT CAVOK 11/06 Q1018
13:30
V
10 °C 10 km+ - 130° 130° 8 kt METAR LFBG 271230Z AUTO 13008KT CAVOK 10/06 Q1018
13:00
V
10 °C 10 km+ - 130° 130° 7 kt METAR LFBG 271200Z AUTO 13007KT CAVOK 10/06 Q1019
12:30
V
10 °C 10 km+ - 130° 130° 7 kt METAR LFBG 271130Z AUTO 13007KT CAVOK 10/06 Q1019
12:00
V
10 °C 10 km+ - 140° 140° 10 kt METAR LFBG 271100Z AUTO 14010KT CAVOK 10/06 Q1020
11:30
V
9 °C 10 km+ - 150° 150° 8 kt METAR LFBG 271030Z AUTO 15008KT CAVOK 09/06 Q1020
11:00
V
9 °C 10 km+ - 140° 140° 6 kt METAR LFBG 271000Z AUTO 14006KT CAVOK 09/06 Q1021

My i strony trzecie śledzimy Twoje zachowanie internetowe na naszej stronie za pomocą plików cookie. Jeśli kontynuujesz, zakładamy, że zgadzasz się z naszymi polityka plików cookie.